createdAt,value
2022-07-26T00:00:28.877Z,47.91
2022-07-26T00:02:55.716Z,47.60
2022-07-26T00:05:22.465Z,46.68
2022-07-26T00:07:49.155Z,46.07
2022-07-26T00:10:15.842Z,45.66
2022-07-26T00:12:42.509Z,46.24
2022-07-26T00:15:11.334Z,45.50
2022-07-26T00:17:38.993Z,45.51
2022-07-26T00:20:06.553Z,45.66
2022-07-26T00:22:36.355Z,45.39
2022-07-26T00:25:07.704Z,45.81
2022-07-26T00:27:37.826Z,45.82
2022-07-26T00:30:06.610Z,46.18
2022-07-26T00:32:33.561Z,47.01
2022-07-26T00:35:00.255Z,47.99
2022-07-26T00:37:26.954Z,47.60
2022-07-26T00:39:53.780Z,47.63
2022-07-26T00:42:20.480Z,47.89
2022-07-26T00:44:47.304Z,46.97
2022-07-26T00:47:15.335Z,46.90
2022-07-26T00:49:43.430Z,46.35
2022-07-26T00:52:11.326Z,46.25
2022-07-26T00:54:39.519Z,46.45
2022-07-26T00:57:06.804Z,46.60
2022-07-26T00:59:33.532Z,46.73
2022-07-26T01:02:00.473Z,46.50
2022-07-26T01:04:27.566Z,47.15
2022-07-26T01:06:54.858Z,48.76
2022-07-26T01:09:21.636Z,48.68
2022-07-26T01:11:48.308Z,48.29
2022-07-26T01:14:16.476Z,50.71
2022-07-26T01:16:44.153Z,49.02
2022-07-26T01:19:10.929Z,47.86
2022-07-26T01:21:37.600Z,47.71
2022-07-26T01:24:04.966Z,47.00
2022-07-26T01:26:31.929Z,47.33
2022-07-26T01:28:58.640Z,47.07
2022-07-26T01:31:25.591Z,47.32
2022-07-26T01:33:52.568Z,47.41
2022-07-26T01:36:19.729Z,47.42
2022-07-26T01:38:46.382Z,48.22
2022-07-26T01:41:13.413Z,48.84
2022-07-26T01:43:42.912Z,48.48
2022-07-26T01:46:10.269Z,48.95
2022-07-26T01:48:37.194Z,48.87
2022-07-26T01:51:04.246Z,49.21
2022-07-26T01:53:30.899Z,49.47
2022-07-26T01:55:58.267Z,48.83
2022-07-26T01:58:24.923Z,48.54
2022-07-26T02:00:51.663Z,48.52
2022-07-26T02:03:18.354Z,49.11
2022-07-26T02:05:45.004Z,49.05
2022-07-26T02:08:14.763Z,48.66
2022-07-26T02:11:00.550Z,48.58
2022-07-26T02:13:35.983Z,48.28
2022-07-26T02:16:04.919Z,50.65
2022-07-26T02:18:32.120Z,50.17
2022-07-26T02:21:00.503Z,49.83
2022-07-26T02:23:28.192Z,49.14
2022-07-26T02:25:55.828Z,48.52
2022-07-26T02:28:23.132Z,48.93
2022-07-26T02:30:50.658Z,50.08
2022-07-26T02:33:18.121Z,52.11
2022-07-26T02:35:46.457Z,53.13
2022-07-26T02:38:15.278Z,51.88
2022-07-26T02:40:42.498Z,51.10
2022-07-26T02:43:10.305Z,51.18
2022-07-26T02:45:37.541Z,50.66
2022-07-26T02:48:04.559Z,49.59
2022-07-26T02:50:32.188Z,49.36
2022-07-26T02:52:58.927Z,49.61
2022-07-26T02:55:27.383Z,49.21
2022-07-26T02:57:54.375Z,49.15
2022-07-26T03:00:25.204Z,49.31
2022-07-26T03:02:52.886Z,49.23
2022-07-26T03:05:20.760Z,48.96
2022-07-26T03:07:48.110Z,49.46
2022-07-26T03:10:15.421Z,48.58
2022-07-26T03:12:42.386Z,48.71
2022-07-26T03:15:09.732Z,48.89
2022-07-26T03:17:36.390Z,49.17
2022-07-26T03:20:04.554Z,49.20
2022-07-26T03:22:31.257Z,50.23
2022-07-26T03:24:57.911Z,49.96
2022-07-26T03:27:24.583Z,49.27
2022-07-26T03:29:51.191Z,49.51
2022-07-26T03:32:17.869Z,49.18
2022-07-26T03:34:44.646Z,49.68
2022-07-26T03:37:11.428Z,49.47
2022-07-26T03:39:38.350Z,49.15
2022-07-26T03:42:05.255Z,48.65
2022-07-26T03:44:32.020Z,49.17
2022-07-26T03:46:59.092Z,49.22
2022-07-26T03:49:26.730Z,49.03
2022-07-26T03:51:53.863Z,49.92
2022-07-26T03:54:20.682Z,50.16
2022-07-26T03:56:47.488Z,49.44
2022-07-26T03:59:14.249Z,49.35
2022-07-26T04:01:42.547Z,49.08
2022-07-26T04:04:11.488Z,50.10
2022-07-26T04:06:39.398Z,49.92
2022-07-26T04:09:07.292Z,51.52
2022-07-26T04:11:35.392Z,51.89
2022-07-26T04:14:02.358Z,51.25
2022-07-26T04:16:29.480Z,50.91
2022-07-26T04:18:56.433Z,50.96
2022-07-26T04:21:23.742Z,50.73
2022-07-26T04:23:51.799Z,50.15
2022-07-26T04:26:20.494Z,50.67
2022-07-26T04:28:47.423Z,50.01
2022-07-26T04:31:14.305Z,49.42
2022-07-26T04:33:41.254Z,49.59
2022-07-26T04:36:08.301Z,50.49
2022-07-26T04:38:35.194Z,49.83
2022-07-26T04:41:01.934Z,51.47
2022-07-26T04:43:28.621Z,50.49
2022-07-26T04:45:57.503Z,50.27
2022-07-26T04:48:24.789Z,49.85
2022-07-26T04:50:52.079Z,49.62
2022-07-26T04:53:19.039Z,49.48
2022-07-26T04:55:45.926Z,48.81
2022-07-26T04:58:12.824Z,48.52
2022-07-26T05:03:26.436Z,50.04
2022-07-26T05:05:53.689Z,49.90
2022-07-26T05:08:20.613Z,49.76
2022-07-26T05:10:52.969Z,51.01
2022-07-26T05:13:29.341Z,49.99
2022-07-26T05:15:57.827Z,49.76
2022-07-26T05:18:24.601Z,49.65
2022-07-26T05:20:51.616Z,50.27
2022-07-26T05:23:19.961Z,50.11
2022-07-26T05:25:46.789Z,49.89
2022-07-26T05:28:13.590Z,49.20
2022-07-26T05:30:40.376Z,48.54
2022-07-26T05:33:07.155Z,48.57
2022-07-26T05:35:33.803Z,49.48
2022-07-26T05:38:00.481Z,50.41
2022-07-26T05:40:27.575Z,49.12
2022-07-26T05:42:54.335Z,49.03
2022-07-26T05:45:21.021Z,48.32
2022-07-26T05:47:50.560Z,47.39
2022-07-26T05:50:17.660Z,47.08
2022-07-26T05:52:44.353Z,47.03
2022-07-26T05:55:11.057Z,46.57
2022-07-26T05:57:41.578Z,47.62
2022-07-26T06:00:09.854Z,47.85
2022-07-26T06:02:36.733Z,48.27
2022-07-26T06:05:03.707Z,48.91
2022-07-26T06:07:30.353Z,47.94
2022-07-26T06:09:57.181Z,47.36
2022-07-26T06:12:23.939Z,48.44
2022-07-26T06:14:50.731Z,48.52
2022-07-26T06:17:17.566Z,46.93
2022-07-26T06:19:47.609Z,46.62
2022-07-26T06:22:14.935Z,47.66
2022-07-26T06:24:41.697Z,47.54
2022-07-26T06:27:08.524Z,48.12
2022-07-26T06:29:35.287Z,49.14
2022-07-26T06:32:02.221Z,46.47
2022-07-26T06:34:29.412Z,45.88
2022-07-26T06:36:56.412Z,47.62
2022-07-26T06:39:23.175Z,47.71
2022-07-26T06:41:49.884Z,48.92
2022-07-26T06:44:16.656Z,48.14
2022-07-26T06:46:43.438Z,47.01
2022-07-26T06:49:10.122Z,46.83
2022-07-26T06:51:36.932Z,45.64
2022-07-26T06:54:05.571Z,46.38
2022-07-26T06:56:33.027Z,46.05
2022-07-26T06:58:59.891Z,48.21
2022-07-26T07:01:58.721Z,48.28
2022-07-26T07:04:13.290Z,47.91
2022-07-26T07:06:40.079Z,47.66
2022-07-26T07:09:07.782Z,48.58
2022-07-26T07:11:35.759Z,47.64
2022-07-26T07:14:03.485Z,47.48
2022-07-26T07:16:30.467Z,47.06
2022-07-26T07:18:57.420Z,46.98
2022-07-26T07:21:24.099Z,47.55
2022-07-26T07:23:50.744Z,46.35
2022-07-26T07:26:17.609Z,46.36
2022-07-26T07:28:44.365Z,46.73
2022-07-26T07:31:11.858Z,46.35
2022-07-26T07:33:52.907Z,46.21
2022-07-26T07:36:21.156Z,45.50
2022-07-26T07:38:48.784Z,46.00
2022-07-26T07:41:16.109Z,47.25
2022-07-26T07:43:42.777Z,45.78
2022-07-26T07:46:09.511Z,45.38
2022-07-26T07:48:38.707Z,46.92
2022-07-26T07:51:08.451Z,46.42
2022-07-26T07:53:35.292Z,46.33
2022-07-26T07:56:02.459Z,45.12
2022-07-26T07:58:29.168Z,44.56
2022-07-26T08:00:55.958Z,44.06
2022-07-26T08:03:22.676Z,44.17
2022-07-26T08:05:50.851Z,45.22
2022-07-26T08:08:19.412Z,45.19
2022-07-26T08:10:51.730Z,45.28
2022-07-26T08:13:21.128Z,45.16
2022-07-26T08:15:49.533Z,44.44
2022-07-26T08:18:16.324Z,44.17
2022-07-26T08:20:43.567Z,43.34
2022-07-26T08:23:10.540Z,43.08
2022-07-26T08:25:42.661Z,43.76
2022-07-26T08:28:37.542Z,44.87
2022-07-26T08:31:03.933Z,42.71
2022-07-26T08:33:30.809Z,42.22
2022-07-26T08:35:58.674Z,42.63
2022-07-26T08:38:25.691Z,43.25
2022-07-26T08:40:52.568Z,44.21
2022-07-26T08:43:19.243Z,42.48
2022-07-26T08:45:47.346Z,41.97
2022-07-26T08:48:17.679Z,41.35
2022-07-26T08:50:44.890Z,40.69
2022-07-26T08:53:13.228Z,41.52
2022-07-26T08:56:04.726Z,39.99
2022-07-26T08:58:28.557Z,40.30
2022-07-26T09:01:09.602Z,40.93
2022-07-26T09:03:38.060Z,40.82
2022-07-26T09:06:16.836Z,39.02
2022-07-26T09:08:45.786Z,40.23
2022-07-26T09:11:32.242Z,38.79
2022-07-26T09:14:00.944Z,38.61
2022-07-26T09:16:29.351Z,36.18
2022-07-26T09:19:15.776Z,33.85
2022-07-26T09:21:42.527Z,31.98
2022-07-26T09:24:10.521Z,31.36
2022-07-26T09:26:37.271Z,30.61
2022-07-26T09:29:08.295Z,28.84
2022-07-26T09:31:36.893Z,29.17
2022-07-26T09:34:04.914Z,28.16
2022-07-26T09:36:32.034Z,27.58
2022-07-26T09:39:04.562Z,28.47
2022-07-26T09:41:34.635Z,28.91
2022-07-26T09:44:04.849Z,28.40
2022-07-26T09:46:33.079Z,29.70
2022-07-26T09:49:17.265Z,30.68
2022-07-26T09:51:46.898Z,28.83
2022-07-26T09:54:30.512Z,29.90
2022-07-26T09:56:58.097Z,30.17
2022-07-26T09:59:26.949Z,30.16
2022-07-26T10:01:57.454Z,31.30
2022-07-26T10:04:25.069Z,31.07
2022-07-26T10:06:52.531Z,29.54
2022-07-26T10:09:19.872Z,29.68
2022-07-26T10:11:56.744Z,28.36
2022-07-26T10:14:37.436Z,29.08
2022-07-26T10:17:31.556Z,29.66
2022-07-26T10:20:03.744Z,29.50
2022-07-26T10:22:42.772Z,28.86
2022-07-26T10:25:38.525Z,27.15
2022-07-26T10:28:11.834Z,27.96
2022-07-26T10:30:39.131Z,25.42
2022-07-26T10:33:15.933Z,24.78
2022-07-26T10:35:43.744Z,23.29
2022-07-26T10:38:25.700Z,23.81
2022-07-26T10:40:59.437Z,25.75
2022-07-26T10:43:42.938Z,26.45
2022-07-26T10:46:16.288Z,26.83
2022-07-26T10:49:00.105Z,27.37
2022-07-26T10:51:32.615Z,26.98
2022-07-26T10:54:10.938Z,27.32
2022-07-26T10:56:38.724Z,27.78
2022-07-26T10:59:06.292Z,28.22
2022-07-26T11:01:43.677Z,27.28
2022-07-26T11:08:11.604Z,25.59
2022-07-26T11:10:44.341Z,27.33
2022-07-26T11:13:15.332Z,25.42
2022-07-26T11:15:54.462Z,25.22
2022-07-26T11:18:25.176Z,24.91
2022-07-26T11:20:54.662Z,24.37
2022-07-26T11:23:25.255Z,25.25
2022-07-26T11:26:17.436Z,23.18
2022-07-26T11:28:58.723Z,20.47
2022-07-26T11:31:49.699Z,22.47
2022-07-26T11:34:23.354Z,25.18
2022-07-26T11:36:53.132Z,25.21
2022-07-26T11:39:32.067Z,24.56
2022-07-26T11:42:04.943Z,25.00
2022-07-26T11:44:32.381Z,25.62
2022-07-26T11:46:59.616Z,24.75
2022-07-26T11:49:52.802Z,25.50
2022-07-26T11:52:24.401Z,23.47
2022-07-26T11:54:53.498Z,23.72
2022-07-26T11:57:20.285Z,24.08
2022-07-26T11:59:48.819Z,22.96
2022-07-26T12:02:22.218Z,22.42
2022-07-26T12:04:50.175Z,23.21
2022-07-26T12:07:21.468Z,23.63
2022-07-26T12:09:55.069Z,23.88
2022-07-26T12:12:31.827Z,24.01
2022-07-26T12:15:00.819Z,22.59
2022-07-26T12:17:34.557Z,21.79
2022-07-26T12:20:18.471Z,20.72
2022-07-26T12:23:00.461Z,20.80
2022-07-26T12:25:29.388Z,21.50
2022-07-26T12:27:56.476Z,22.09
2022-07-26T12:30:23.878Z,22.87
2022-07-26T12:32:54.855Z,22.66
2022-07-26T12:35:35.683Z,20.76
2022-07-26T12:38:05.950Z,21.57
2022-07-26T12:40:41.653Z,21.14
2022-07-26T12:43:10.147Z,22.07
2022-07-26T12:45:38.168Z,21.38
2022-07-26T12:48:12.662Z,22.20
2022-07-26T12:50:39.432Z,23.12
2022-07-26T12:53:08.249Z,21.50
2022-07-26T12:55:36.454Z,21.27
2022-07-26T12:58:03.303Z,22.40
2022-07-26T13:00:30.285Z,22.83
2022-07-26T13:02:57.804Z,22.13
2022-07-26T13:05:24.806Z,22.50
2022-07-26T13:07:55.579Z,22.51
2022-07-26T13:10:37.960Z,22.69
2022-07-26T13:13:05.174Z,23.58
2022-07-26T13:15:36.381Z,23.66
2022-07-26T13:18:05.553Z,23.87
2022-07-26T13:20:32.754Z,22.71
2022-07-26T13:22:59.557Z,23.37
2022-07-26T13:25:29.500Z,23.88
2022-07-26T13:28:10.082Z,22.74
2022-07-26T13:30:39.179Z,23.32
2022-07-26T13:33:06.880Z,23.50
2022-07-26T13:35:33.702Z,23.18
2022-07-26T13:38:00.581Z,23.77
2022-07-26T13:40:31.495Z,23.54
2022-07-26T13:42:58.969Z,23.99
2022-07-26T13:45:28.849Z,23.76
2022-07-26T13:51:59.017Z,23.50
2022-07-26T13:54:28.543Z,22.77
2022-07-26T13:56:56.360Z,23.16
2022-07-26T13:59:23.241Z,23.66
2022-07-26T14:01:50.259Z,24.00
2022-07-26T14:04:17.452Z,23.47
2022-07-26T14:06:44.459Z,22.66
2022-07-26T14:09:11.544Z,22.31
2022-07-26T14:11:39.029Z,23.35
2022-07-26T14:14:06.136Z,23.40
2022-07-26T14:16:33.881Z,23.80
2022-07-26T14:19:01.130Z,22.76
2022-07-26T14:21:29.383Z,23.47
2022-07-26T14:24:10.658Z,22.85
2022-07-26T14:26:37.599Z,22.88
2022-07-26T14:29:04.377Z,23.37
2022-07-26T14:31:32.551Z,23.13
2022-07-26T14:33:59.413Z,22.71
2022-07-26T14:36:26.172Z,22.88
2022-07-26T14:38:52.875Z,22.69
2022-07-26T14:41:19.638Z,23.04
2022-07-26T14:43:48.886Z,23.14
2022-07-26T14:46:20.437Z,23.36
2022-07-26T14:48:54.374Z,23.06
2022-07-26T14:51:21.856Z,22.14
2022-07-26T14:53:48.895Z,22.66
2022-07-26T14:56:15.557Z,22.71
2022-07-26T14:58:42.230Z,22.09
2022-07-26T15:01:09.156Z,21.90
2022-07-26T15:03:35.970Z,22.75
2022-07-26T15:06:02.683Z,22.74
2022-07-26T15:08:29.374Z,22.85
2022-07-26T15:10:56.162Z,23.52
2022-07-26T15:13:22.872Z,24.18
2022-07-26T15:15:49.617Z,22.22
2022-07-26T15:18:16.326Z,22.41
2022-07-26T15:20:43.064Z,22.39
2022-07-26T15:23:11.686Z,23.42
2022-07-26T15:25:38.762Z,23.88
2022-07-26T15:28:05.689Z,22.47
2022-07-26T15:30:33.613Z,24.37
2022-07-26T15:33:02.083Z,23.03
2022-07-26T15:35:30.001Z,23.95
2022-07-26T15:37:57.833Z,24.18
2022-07-26T15:40:24.949Z,23.90
2022-07-26T15:42:53.094Z,23.87
2022-07-26T15:45:20.977Z,23.60
2022-07-26T15:47:56.057Z,24.27
2022-07-26T15:50:26.470Z,23.92
2022-07-26T15:52:53.298Z,23.63
2022-07-26T15:55:20.568Z,23.60
2022-07-26T15:57:47.378Z,23.50
2022-07-26T16:00:15.546Z,24.07
2022-07-26T16:02:42.478Z,26.25
2022-07-26T16:05:10.805Z,25.74
2022-07-26T16:07:41.420Z,26.35
2022-07-26T16:10:10.300Z,25.14
2022-07-26T16:12:37.012Z,23.88
2022-07-26T16:15:04.949Z,25.41
2022-07-26T16:17:31.636Z,26.19
2022-07-26T16:19:58.524Z,24.74
2022-07-26T16:22:25.273Z,25.52
2022-07-26T16:24:51.975Z,26.63
2022-07-26T16:27:18.822Z,27.91
2022-07-26T16:29:50.235Z,29.20
2022-07-26T16:32:20.649Z,30.73
2022-07-26T16:34:47.293Z,32.03
2022-07-26T16:37:13.938Z,32.88
2022-07-26T16:39:40.574Z,33.71
2022-07-26T16:42:07.622Z,34.57
2022-07-26T16:44:36.333Z,35.46
2022-07-26T16:47:03.985Z,36.21
2022-07-26T16:49:30.867Z,36.15
2022-07-26T16:51:57.727Z,35.61
2022-07-26T16:54:24.834Z,35.92
2022-07-26T16:56:51.507Z,36.60
2022-07-26T16:59:18.455Z,37.45
2022-07-26T17:01:45.487Z,38.53
2022-07-26T17:04:12.291Z,39.14
2022-07-26T17:06:41.279Z,38.44
2022-07-26T17:09:15.795Z,37.98
2022-07-26T17:11:42.985Z,38.13
2022-07-26T17:14:09.659Z,38.66
2022-07-26T17:16:36.971Z,39.23
2022-07-26T17:19:03.702Z,38.89
2022-07-26T17:21:30.534Z,38.88
2022-07-26T17:23:57.197Z,38.42
2022-07-26T17:26:24.373Z,38.10
2022-07-26T17:28:51.024Z,38.05
2022-07-26T17:31:17.692Z,38.14
2022-07-26T17:33:44.352Z,37.95
2022-07-26T17:36:28.187Z,38.09
2022-07-26T17:38:56.073Z,37.30
2022-07-26T17:41:24.235Z,37.70
2022-07-26T17:43:59.931Z,37.14
2022-07-26T17:46:26.640Z,36.27
2022-07-26T17:48:53.403Z,36.07
2022-07-26T17:51:20.269Z,35.75
2022-07-26T17:53:52.728Z,35.61
2022-07-26T17:56:23.138Z,35.26
2022-07-26T17:58:49.853Z,34.98
2022-07-26T18:01:16.660Z,35.15
2022-07-26T18:03:43.444Z,35.00
2022-07-26T18:06:10.642Z,34.68
2022-07-26T18:08:37.525Z,34.81
2022-07-26T18:11:05.363Z,34.47
2022-07-26T18:13:32.007Z,34.52
2022-07-26T18:16:02.830Z,34.25
2022-07-26T18:18:32.428Z,34.42
2022-07-26T18:20:59.349Z,34.13
2022-07-26T18:23:26.019Z,33.96
2022-07-26T18:25:53.876Z,34.07
2022-07-26T18:28:20.646Z,34.02
2022-07-26T18:30:47.331Z,34.24
2022-07-26T18:33:14.536Z,33.90
2022-07-26T18:35:41.899Z,33.99
2022-07-26T18:38:09.133Z,36.91
2022-07-26T18:40:36.416Z,37.90
2022-07-26T18:43:03.348Z,36.36
2022-07-26T18:45:30.036Z,36.11
2022-07-26T18:47:56.704Z,36.23
2022-07-26T18:50:26.653Z,35.93
2022-07-26T18:52:57.870Z,36.22
2022-07-26T18:55:24.817Z,35.59
2022-07-26T18:57:51.730Z,35.58
2022-07-26T19:00:21.433Z,33.93
2022-07-26T19:02:48.507Z,34.08
2022-07-26T19:05:16.333Z,33.71
2022-07-26T19:07:43.561Z,33.27
2022-07-26T19:10:10.983Z,33.31
2022-07-26T19:12:37.782Z,33.12
2022-07-26T19:15:08.560Z,33.76
2022-07-26T19:17:38.176Z,33.91
2022-07-26T19:20:06.813Z,34.17
2022-07-26T19:22:33.733Z,33.32
2022-07-26T19:25:00.507Z,33.86
2022-07-26T19:27:28.006Z,32.94
2022-07-26T19:29:56.991Z,32.99
2022-07-26T19:32:24.397Z,33.16
2022-07-26T19:34:51.353Z,33.12
2022-07-26T19:37:21.382Z,34.00
2022-07-26T19:39:49.676Z,34.44
2022-07-26T19:42:17.959Z,35.02
2022-07-26T19:44:45.852Z,35.13
2022-07-26T19:47:13.660Z,35.39
2022-07-26T19:49:43.524Z,35.91
2022-07-26T19:52:11.865Z,35.77
2022-07-26T19:54:39.051Z,35.65
2022-07-26T19:57:07.359Z,35.34
2022-07-26T19:59:34.373Z,35.70
2022-07-26T20:02:02.130Z,34.93
2022-07-26T20:04:28.999Z,35.08
2022-07-26T20:06:56.490Z,35.38
2022-07-26T20:09:23.233Z,35.07
2022-07-26T20:11:51.112Z,34.91
2022-07-26T20:14:23.343Z,35.58
2022-07-26T20:16:55.811Z,35.14
2022-07-26T20:19:24.712Z,35.15
2022-07-26T20:21:51.430Z,35.06
2022-07-26T20:24:19.055Z,35.23
2022-07-26T20:26:46.047Z,35.39
2022-07-26T20:29:13.099Z,35.01
2022-07-26T20:31:39.983Z,35.10
2022-07-26T20:34:06.696Z,35.47
2022-07-26T20:36:33.420Z,35.60
2022-07-26T20:39:03.096Z,35.74
2022-07-26T20:41:34.165Z,35.87
2022-07-26T20:44:01.077Z,36.00
2022-07-26T20:46:28.177Z,35.88
2022-07-26T20:48:55.101Z,35.76
2022-07-26T20:51:21.971Z,36.41
2022-07-26T20:53:48.668Z,35.77
2022-07-26T20:56:15.453Z,35.22
2022-07-26T20:58:42.148Z,34.60
2022-07-26T21:01:09.300Z,34.06
2022-07-26T21:03:36.181Z,33.80
2022-07-26T21:06:02.942Z,34.10
2022-07-26T21:08:29.737Z,34.08
2022-07-26T21:10:56.370Z,34.16
2022-07-26T21:13:23.025Z,34.48
2022-07-26T21:15:51.348Z,34.61
2022-07-26T21:18:18.302Z,34.79
2022-07-26T21:20:45.018Z,34.92
2022-07-26T21:23:17.176Z,34.79
2022-07-26T21:25:44.289Z,34.98
2022-07-26T21:28:11.063Z,35.09
2022-07-26T21:30:37.957Z,35.25
2022-07-26T21:33:05.395Z,35.16
2022-07-26T21:35:34.893Z,35.51
2022-07-26T21:38:01.706Z,35.95
2022-07-26T21:40:28.489Z,35.81
2022-07-26T21:42:55.176Z,36.52
2022-07-26T21:45:22.037Z,37.11
2022-07-26T21:47:48.917Z,36.94
2022-07-26T21:50:15.625Z,37.04
2022-07-26T21:52:42.283Z,36.72
2022-07-26T21:55:09.275Z,37.00
2022-07-26T21:57:36.016Z,36.83
2022-07-26T22:00:04.016Z,37.13
2022-07-26T22:02:30.780Z,37.54
2022-07-26T22:04:57.679Z,37.49
2022-07-26T22:07:28.695Z,37.12
2022-07-26T22:09:55.488Z,37.40
2022-07-26T22:12:22.259Z,37.65
2022-07-26T22:14:48.915Z,37.60
2022-07-26T22:17:15.550Z,37.52
2022-07-26T22:19:42.180Z,37.48
2022-07-26T22:22:08.947Z,37.25
2022-07-26T22:24:35.654Z,37.55
2022-07-26T22:27:02.328Z,37.51
2022-07-26T22:29:39.943Z,36.69
2022-07-26T22:32:07.053Z,36.74
2022-07-26T22:34:33.860Z,36.85
2022-07-26T22:37:00.589Z,37.27
2022-07-26T22:39:27.614Z,37.13
2022-07-26T22:42:14.209Z,37.11
2022-07-26T22:44:41.080Z,37.44
2022-07-26T22:47:07.769Z,36.87
2022-07-26T22:49:34.527Z,37.07
2022-07-26T22:52:01.274Z,37.59
2022-07-26T22:54:27.933Z,37.30
2022-07-26T22:56:54.620Z,37.92
2022-07-26T22:59:22.587Z,37.92
2022-07-26T23:01:49.303Z,37.99
2022-07-26T23:04:16.213Z,37.84
2022-07-26T23:06:43.104Z,37.95
2022-07-26T23:09:11.848Z,37.91
2022-07-26T23:11:39.014Z,37.83
2022-07-26T23:14:07.689Z,38.35
2022-07-26T23:16:34.959Z,38.76
2022-07-26T23:19:06.395Z,38.47
2022-07-26T23:21:41.783Z,38.67
2022-07-26T23:24:08.976Z,38.66
2022-07-26T23:26:36.688Z,38.66
2022-07-26T23:29:06.782Z,38.49
2022-07-26T23:31:34.667Z,38.46
2022-07-26T23:34:04.387Z,38.26
2022-07-26T23:36:33.078Z,38.50
2022-07-26T23:41:45.097Z,38.32
2022-07-26T23:46:53.403Z,38.47
